sensor_id;sensor_type;location;lat;lon;timestamp;temperature;humidity
53748;DHT22;39655;53.210;5.768;2023-08-01T00:00:45;16.10;96.80
53748;DHT22;39655;53.210;5.768;2023-08-01T00:03:11;16.10;96.70
53748;DHT22;39655;53.210;5.768;2023-08-01T00:05:36;16.10;96.50
53748;DHT22;39655;53.210;5.768;2023-08-01T00:08:04;16.10;96.50
53748;DHT22;39655;53.210;5.768;2023-08-01T00:10:29;16.00;96.40
53748;DHT22;39655;53.210;5.768;2023-08-01T00:12:55;16.00;96.40
53748;DHT22;39655;53.210;5.768;2023-08-01T00:15:21;16.10;96.40
53748;DHT22;39655;53.210;5.768;2023-08-01T00:17:46;16.00;96.40
53748;DHT22;39655;53.210;5.768;2023-08-01T00:20:12;16.00;96.40
53748;DHT22;39655;53.210;5.768;2023-08-01T00:22:38;15.90;96.40
53748;DHT22;39655;53.210;5.768;2023-08-01T00:25:04;15.80;96.30
53748;DHT22;39655;53.210;5.768;2023-08-01T00:27:30;15.80;96.40
53748;DHT22;39655;53.210;5.768;2023-08-01T00:29:57;15.70;96.30
53748;DHT22;39655;53.210;5.768;2023-08-01T00:32:23;15.60;96.30
53748;DHT22;39655;53.210;5.768;2023-08-01T00:34:50;15.60;96.40
53748;DHT22;39655;53.210;5.768;2023-08-01T00:37:16;15.60;96.30
53748;DHT22;39655;53.210;5.768;2023-08-01T00:39:42;15.50;96.30
53748;DHT22;39655;53.210;5.768;2023-08-01T00:42:08;15.60;96.60
53748;DHT22;39655;53.210;5.768;2023-08-01T00:44:34;15.50;96.50
53748;DHT22;39655;53.210;5.768;2023-08-01T00:47:00;15.50;96.50
53748;DHT22;39655;53.210;5.768;2023-08-01T00:49:25;15.40;96.40
53748;DHT22;39655;53.210;5.768;2023-08-01T00:51:51;15.30;96.40
53748;DHT22;39655;53.210;5.768;2023-08-01T00:54:18;15.20;96.40
53748;DHT22;39655;53.210;5.768;2023-08-01T00:56:43;15.20;96.30
53748;DHT22;39655;53.210;5.768;2023-08-01T00:59:11;15.10;96.40
53748;DHT22;39655;53.210;5.768;2023-08-01T01:01:37;15.10;96.50
53748;DHT22;39655;53.210;5.768;2023-08-01T01:04:03;15.10;96.50
53748;DHT22;39655;53.210;5.768;2023-08-01T01:06:47;15.10;96.50
53748;DHT22;39655;53.210;5.768;2023-08-01T01:09:17;15.10;96.60
53748;DHT22;39655;53.210;5.768;2023-08-01T01:11:44;15.00;96.60
53748;DHT22;39655;53.210;5.768;2023-08-01T01:14:10;15.00;96.60
53748;DHT22;39655;53.210;5.768;2023-08-01T01:16:36;15.00;96.60
53748;DHT22;39655;53.210;5.768;2023-08-01T01:19:06;15.10;96.70
53748;DHT22;39655;53.210;5.768;2023-08-01T01:21:34;15.10;96.70
53748;DHT22;39655;53.210;5.768;2023-08-01T01:24:02;15.10;96.70
53748;DHT22;39655;53.210;5.768;2023-08-01T01:26:29;15.10;96.80
53748;DHT22;39655;53.210;5.768;2023-08-01T01:28:55;15.10;96.80
53748;DHT22;39655;53.210;5.768;2023-08-01T01:31:21;15.00;96.70
53748;DHT22;39655;53.210;5.768;2023-08-01T01:33:47;15.00;96.70
53748;DHT22;39655;53.210;5.768;2023-08-01T01:36:13;15.00;96.70
53748;DHT22;39655;53.210;5.768;2023-08-01T01:38:38;15.00;96.70
53748;DHT22;39655;53.210;5.768;2023-08-01T01:41:04;14.90;96.70
53748;DHT22;39655;53.210;5.768;2023-08-01T01:43:30;14.90;96.70
53748;DHT22;39655;53.210;5.768;2023-08-01T01:45:55;14.90;96.60
53748;DHT22;39655;53.210;5.768;2023-08-01T01:48:21;14.90;96.70
53748;DHT22;39655;53.210;5.768;2023-08-01T01:50:47;14.90;96.70
53748;DHT22;39655;53.210;5.768;2023-08-01T01:53:12;14.90;96.80
53748;DHT22;39655;53.210;5.768;2023-08-01T01:55:38;14.90;96.80
53748;DHT22;39655;53.210;5.768;2023-08-01T01:58:05;15.00;96.90
53748;DHT22;39655;53.210;5.768;2023-08-01T02:00:31;15.00;96.90
53748;DHT22;39655;53.210;5.768;2023-08-01T02:02:57;15.10;97.00
53748;DHT22;39655;53.210;5.768;2023-08-01T02:05:23;15.10;97.10
53748;DHT22;39655;53.210;5.768;2023-08-01T02:07:48;15.30;97.30
53748;DHT22;39655;53.210;5.768;2023-08-01T03:32:07;14.60;98.10
53748;DHT22;39655;53.210;5.768;2023-08-01T03:35:04;14.60;98.10
53748;DHT22;39655;53.210;5.768;2023-08-01T03:52:44;14.60;98.30
53748;DHT22;39655;53.210;5.768;2023-08-01T03:55:43;14.60;98.30
53748;DHT22;39655;53.210;5.768;2023-08-01T03:58:42;14.60;98.30
53748;DHT22;39655;53.210;5.768;2023-08-01T04:01:36;14.60;98.40
53748;DHT22;39655;53.210;5.768;2023-08-01T04:04:09;14.70;98.50
53748;DHT22;39655;53.210;5.768;2023-08-01T04:06:49;14.70;98.50
53748;DHT22;39655;53.210;5.768;2023-08-01T04:09:15;14.70;98.50
53748;DHT22;39655;53.210;5.768;2023-08-01T04:11:50;14.80;98.60
53748;DHT22;39655;53.210;5.768;2023-08-01T07:19:41;15.90;99.10
53748;DHT22;39655;53.210;5.768;2023-08-01T07:22:07;15.90;99.10
53748;DHT22;39655;53.210;5.768;2023-08-01T07:24:35;15.90;99.10
53748;DHT22;39655;53.210;5.768;2023-08-01T07:27:00;15.80;99.10
53748;DHT22;39655;53.210;5.768;2023-08-01T07:29:26;15.60;99.00
53748;DHT22;39655;53.210;5.768;2023-08-01T07:32:01;15.40;99.00
53748;DHT22;39655;53.210;5.768;2023-08-01T07:34:27;15.40;99.00
53748;DHT22;39655;53.210;5.768;2023-08-01T07:36:53;15.20;98.90
53748;DHT22;39655;53.210;5.768;2023-08-01T07:39:35;15.10;98.90
53748;DHT22;39655;53.210;5.768;2023-08-01T07:45:33;15.10;98.80
53748;DHT22;39655;53.210;5.768;2023-08-01T07:48:00;15.00;98.80
53748;DHT22;39655;53.210;5.768;2023-08-01T07:50:27;15.10;98.90
53748;DHT22;39655;53.210;5.768;2023-08-01T07:52:52;15.10;98.90
53748;DHT22;39655;53.210;5.768;2023-08-01T07:55:43;15.20;98.90
53748;DHT22;39655;53.210;5.768;2023-08-01T07:58:50;15.10;98.90
53748;DHT22;39655;53.210;5.768;2023-08-01T08:01:24;15.10;99.00
53748;DHT22;39655;53.210;5.768;2023-08-01T08:07:47;15.30;99.00
53748;DHT22;39655;53.210;5.768;2023-08-01T08:17:22;15.30;99.10
53748;DHT22;39655;53.210;5.768;2023-08-01T08:20:49;15.20;99.10
53748;DHT22;39655;53.210;5.768;2023-08-01T08:23:24;15.30;99.10
53748;DHT22;39655;53.210;5.768;2023-08-01T08:25:55;15.40;99.20
53748;DHT22;39655;53.210;5.768;2023-08-01T08:28:40;15.50;99.20
53748;DHT22;39655;53.210;5.768;2023-08-01T08:31:08;15.60;99.20
53748;DHT22;39655;53.210;5.768;2023-08-01T08:33:33;15.60;99.20
53748;DHT22;39655;53.210;5.768;2023-08-01T08:35:59;15.70;99.20
53748;DHT22;39655;53.210;5.768;2023-08-01T08:38:25;15.90;99.20
53748;DHT22;39655;53.210;5.768;2023-08-01T08:43:39;16.40;99.30
53748;DHT22;39655;53.210;5.768;2023-08-01T08:46:15;16.50;99.30
53748;DHT22;39655;53.210;5.768;2023-08-01T08:48:48;16.50;99.30
53748;DHT22;39655;53.210;5.768;2023-08-01T08:51:18;16.60;99.30
53748;DHT22;39655;53.210;5.768;2023-08-01T08:53:45;16.70;99.40
53748;DHT22;39655;53.210;5.768;2023-08-01T08:56:11;16.80;99.40
53748;DHT22;39655;53.210;5.768;2023-08-01T08:58:37;16.70;99.30
53748;DHT22;39655;53.210;5.768;2023-08-01T09:01:09;16.70;99.30
53748;DHT22;39655;53.210;5.768;2023-08-01T09:03:35;16.80;99.30
53748;DHT22;39655;53.210;5.768;2023-08-01T09:06:14;16.90;99.30
53748;DHT22;39655;53.210;5.768;2023-08-01T09:08:40;16.70;99.10
53748;DHT22;39655;53.210;5.768;2023-08-01T09:11:22;16.60;98.60
53748;DHT22;39655;53.210;5.768;2023-08-01T09:13:51;16.60;97.70
53748;DHT22;39655;53.210;5.768;2023-08-01T09:16:18;16.60;97.50
53748;DHT22;39655;53.210;5.768;2023-08-01T09:18:48;16.90;97.70
53748;DHT22;39655;53.210;5.768;2023-08-01T09:21:22;17.10;97.90
53748;DHT22;39655;53.210;5.768;2023-08-01T09:23:50;17.20;96.60
53748;DHT22;39655;53.210;5.768;2023-08-01T09:26:21;17.20;95.20
53748;DHT22;39655;53.210;5.768;2023-08-01T09:28:58;17.20;94.80
53748;DHT22;39655;53.210;5.768;2023-08-01T09:31:33;17.40;94.50
53748;DHT22;39655;53.210;5.768;2023-08-01T09:34:18;17.50;94.30
53748;DHT22;39655;53.210;5.768;2023-08-01T09:36:48;17.70;94.10
53748;DHT22;39655;53.210;5.768;2023-08-01T09:39:18;17.90;94.00
53748;DHT22;39655;53.210;5.768;2023-08-01T09:41:45;18.00;92.60
53748;DHT22;39655;53.210;5.768;2023-08-01T09:44:15;18.10;90.20
53748;DHT22;39655;53.210;5.768;2023-08-01T09:47:05;18.10;90.20
53748;DHT22;39655;53.210;5.768;2023-08-01T09:49:34;18.10;89.20
53748;DHT22;39655;53.210;5.768;2023-08-01T09:52:05;18.20;89.50
53748;DHT22;39655;53.210;5.768;2023-08-01T09:54:37;18.20;89.50
53748;DHT22;39655;53.210;5.768;2023-08-01T09:57:04;18.30;89.30
53748;DHT22;39655;53.210;5.768;2023-08-01T09:59:33;18.30;88.50
53748;DHT22;39655;53.210;5.768;2023-08-01T10:02:02;18.20;87.30
53748;DHT22;39655;53.210;5.768;2023-08-01T10:04:38;18.20;87.00
53748;DHT22;39655;53.210;5.768;2023-08-01T10:07:11;18.30;86.40
53748;DHT22;39655;53.210;5.768;2023-08-01T10:09:37;18.40;85.60
53748;DHT22;39655;53.210;5.768;2023-08-01T10:12:05;18.30;86.30
53748;DHT22;39655;53.210;5.768;2023-08-01T10:14:40;18.30;86.70
53748;DHT22;39655;53.210;5.768;2023-08-01T10:17:11;18.40;84.50
53748;DHT22;39655;53.210;5.768;2023-08-01T10:19:37;18.50;85.30
53748;DHT22;39655;53.210;5.768;2023-08-01T10:22:09;18.60;85.00
53748;DHT22;39655;53.210;5.768;2023-08-01T10:24:37;18.80;82.20
53748;DHT22;39655;53.210;5.768;2023-08-01T10:27:38;18.90;82.80
53748;DHT22;39655;53.210;5.768;2023-08-01T10:30:04;18.90;81.80
53748;DHT22;39655;53.210;5.768;2023-08-01T10:32:34;18.90;81.70
53748;DHT22;39655;53.210;5.768;2023-08-01T10:35:03;19.10;81.60
53748;DHT22;39655;53.210;5.768;2023-08-01T10:37:45;19.10;80.10
53748;DHT22;39655;53.210;5.768;2023-08-01T10:40:13;19.00;80.20
53748;DHT22;39655;53.210;5.768;2023-08-01T10:42:46;19.00;80.50
53748;DHT22;39655;53.210;5.768;2023-08-01T10:45:21;19.10;82.10
53748;DHT22;39655;53.210;5.768;2023-08-01T10:47:50;19.30;79.10
53748;DHT22;39655;53.210;5.768;2023-08-01T10:50:25;19.40;77.80
53748;DHT22;39655;53.210;5.768;2023-08-01T10:53:05;19.30;77.90
53748;DHT22;39655;53.210;5.768;2023-08-01T10:55:47;19.40;78.50
53748;DHT22;39655;53.210;5.768;2023-08-01T10:58:20;19.50;78.80
53748;DHT22;39655;53.210;5.768;2023-08-01T11:00:58;19.60;77.80
53748;DHT22;39655;53.210;5.768;2023-08-01T11:03:48;19.60;79.60
53748;DHT22;39655;53.210;5.768;2023-08-01T11:06:14;19.60;78.00
53748;DHT22;39655;53.210;5.768;2023-08-01T11:15:37;19.50;76.60
53748;DHT22;39655;53.210;5.768;2023-08-01T11:18:26;19.40;77.60
53748;DHT22;39655;53.210;5.768;2023-08-01T11:21:23;19.40;76.90
53748;DHT22;39655;53.210;5.768;2023-08-01T11:24:09;19.20;77.40
53748;DHT22;39655;53.210;5.768;2023-08-01T11:26:48;19.10;79.30
53748;DHT22;39655;53.210;5.768;2023-08-01T11:29:23;19.40;79.40
53748;DHT22;39655;53.210;5.768;2023-08-01T11:32:09;19.50;77.80
53748;DHT22;39655;53.210;5.768;2023-08-01T11:34:47;19.40;78.90
53748;DHT22;39655;53.210;5.768;2023-08-01T11:37:25;19.60;77.30
53748;DHT22;39655;53.210;5.768;2023-08-01T11:40:15;19.60;77.80
53748;DHT22;39655;53.210;5.768;2023-08-01T11:43:02;19.90;75.50
53748;DHT22;39655;53.210;5.768;2023-08-01T11:45:34;20.50;72.90
53748;DHT22;39655;53.210;5.768;2023-08-01T11:48:16;20.70;73.80
53748;DHT22;39655;53.210;5.768;2023-08-01T11:50:59;20.30;74.70
53748;DHT22;39655;53.210;5.768;2023-08-01T11:53:31;20.00;75.50
53748;DHT22;39655;53.210;5.768;2023-08-01T11:56:35;19.80;76.90
53748;DHT22;39655;53.210;5.768;2023-08-01T11:59:10;20.10;73.60
53748;DHT22;39655;53.210;5.768;2023-08-01T12:01:46;20.60;72.40
53748;DHT22;39655;53.210;5.768;2023-08-01T12:04:29;20.70;73.90
53748;DHT22;39655;53.210;5.768;2023-08-01T12:06:57;20.60;74.70
53748;DHT22;39655;53.210;5.768;2023-08-01T12:09:25;20.80;73.30
53748;DHT22;39655;53.210;5.768;2023-08-01T12:11:58;21.10;71.70
53748;DHT22;39655;53.210;5.768;2023-08-01T12:14:29;21.10;70.80
53748;DHT22;39655;53.210;5.768;2023-08-01T12:16:54;20.80;71.60
53748;DHT22;39655;53.210;5.768;2023-08-01T12:19:20;20.70;71.70
53748;DHT22;39655;53.210;5.768;2023-08-01T12:21:50;20.20;73.90
53748;DHT22;39655;53.210;5.768;2023-08-01T12:24:16;19.90;74.80
53748;DHT22;39655;53.210;5.768;2023-08-01T12:26:42;19.60;76.30
53748;DHT22;39655;53.210;5.768;2023-08-01T12:29:08;19.70;76.60
53748;DHT22;39655;53.210;5.768;2023-08-01T12:31:33;20.20;75.70
53748;DHT22;39655;53.210;5.768;2023-08-01T12:33:59;20.90;73.70
53748;DHT22;39655;53.210;5.768;2023-08-01T12:36:25;21.20;71.60
53748;DHT22;39655;53.210;5.768;2023-08-01T12:38:51;20.90;73.60
53748;DHT22;39655;53.210;5.768;2023-08-01T12:41:17;20.40;75.00
53748;DHT22;39655;53.210;5.768;2023-08-01T12:43:42;20.20;76.80
53748;DHT22;39655;53.210;5.768;2023-08-01T12:46:08;20.60;75.20
53748;DHT22;39655;53.210;5.768;2023-08-01T12:48:33;20.40;72.80
53748;DHT22;39655;53.210;5.768;2023-08-01T12:50:59;20.50;70.60
53748;DHT22;39655;53.210;5.768;2023-08-01T12:53:25;21.20;68.80
53748;DHT22;39655;53.210;5.768;2023-08-01T12:55:51;21.70;68.30
53748;DHT22;39655;53.210;5.768;2023-08-01T12:58:17;21.50;69.40
53748;DHT22;39655;53.210;5.768;2023-08-01T13:00:44;20.70;73.40
53748;DHT22;39655;53.210;5.768;2023-08-01T13:03:10;20.20;76.30
53748;DHT22;39655;53.210;5.768;2023-08-01T13:05:37;20.00;76.50
53748;DHT22;39655;53.210;5.768;2023-08-01T13:08:04;20.10;75.70
53748;DHT22;39655;53.210;5.768;2023-08-01T13:10:32;20.30;75.30
53748;DHT22;39655;53.210;5.768;2023-08-01T13:12:58;20.30;75.90
53748;DHT22;39655;53.210;5.768;2023-08-01T13:15:24;20.40;73.20
53748;DHT22;39655;53.210;5.768;2023-08-01T13:17:50;21.00;69.90
53748;DHT22;39655;53.210;5.768;2023-08-01T13:20:16;21.20;70.80
53748;DHT22;39655;53.210;5.768;2023-08-01T13:22:43;21.80;69.70
53748;DHT22;39655;53.210;5.768;2023-08-01T13:25:09;21.60;70.00
53748;DHT22;39655;53.210;5.768;2023-08-01T13:27:35;21.10;70.30
53748;DHT22;39655;53.210;5.768;2023-08-01T13:30:02;20.60;72.90
53748;DHT22;39655;53.210;5.768;2023-08-01T13:32:28;21.00;71.80
53748;DHT22;39655;53.210;5.768;2023-08-01T13:34:53;21.40;69.80
53748;DHT22;39655;53.210;5.768;2023-08-01T13:37:19;21.00;69.70
53748;DHT22;39655;53.210;5.768;2023-08-01T13:39:45;20.30;72.00
53748;DHT22;39655;53.210;5.768;2023-08-01T13:42:12;19.90;74.30
53748;DHT22;39655;53.210;5.768;2023-08-01T13:44:37;19.60;78.10
53748;DHT22;39655;53.210;5.768;2023-08-01T13:47:03;19.20;78.80
53748;DHT22;39655;53.210;5.768;2023-08-01T13:49:29;19.00;79.90
53748;DHT22;39655;53.210;5.768;2023-08-01T13:51:55;19.00;81.80
53748;DHT22;39655;53.210;5.768;2023-08-01T13:54:20;19.00;80.30
53748;DHT22;39655;53.210;5.768;2023-08-01T13:56:46;18.90;79.80
53748;DHT22;39655;53.210;5.768;2023-08-01T13:59:11;19.10;80.40
53748;DHT22;39655;53.210;5.768;2023-08-01T14:01:37;20.00;78.10
53748;DHT22;39655;53.210;5.768;2023-08-01T14:04:04;20.90;74.00
53748;DHT22;39655;53.210;5.768;2023-08-01T14:06:30;21.40;69.40
53748;DHT22;39655;53.210;5.768;2023-08-01T14:08:55;21.10;70.50
53748;DHT22;39655;53.210;5.768;2023-08-01T14:11:21;20.90;71.00
53748;DHT22;39655;53.210;5.768;2023-08-01T14:13:47;21.00;71.80
53748;DHT22;39655;53.210;5.768;2023-08-01T14:16:12;21.00;70.80
53748;DHT22;39655;53.210;5.768;2023-08-01T14:18:38;20.40;73.20
53748;DHT22;39655;53.210;5.768;2023-08-01T14:21:05;20.20;71.90
53748;DHT22;39655;53.210;5.768;2023-08-01T14:23:31;20.90;71.10
53748;DHT22;39655;53.210;5.768;2023-08-01T14:26:00;21.70;69.30
53748;DHT22;39655;53.210;5.768;2023-08-01T14:28:25;21.90;68.00
53748;DHT22;39655;53.210;5.768;2023-08-01T14:30:51;21.40;70.30
53748;DHT22;39655;53.210;5.768;2023-08-01T14:33:17;21.00;72.10
53748;DHT22;39655;53.210;5.768;2023-08-01T14:35:42;21.10;71.40
53748;DHT22;39655;53.210;5.768;2023-08-01T14:38:08;21.70;71.20
53748;DHT22;39655;53.210;5.768;2023-08-01T14:40:34;22.60;67.90
53748;DHT22;39655;53.210;5.768;2023-08-01T14:43:01;22.40;64.80
53748;DHT22;39655;53.210;5.768;2023-08-01T14:45:27;22.10;65.60
53748;DHT22;39655;53.210;5.768;2023-08-01T14:47:53;22.30;66.10
53748;DHT22;39655;53.210;5.768;2023-08-01T14:50:18;22.40;65.00
53748;DHT22;39655;53.210;5.768;2023-08-01T14:52:44;21.60;67.50
53748;DHT22;39655;53.210;5.768;2023-08-01T14:55:10;21.30;69.10
53748;DHT22;39655;53.210;5.768;2023-08-01T14:57:36;21.10;70.10
53748;DHT22;39655;53.210;5.768;2023-08-01T15:00:02;20.70;70.90
53748;DHT22;39655;53.210;5.768;2023-08-01T15:02:29;20.30;71.90
53748;DHT22;39655;53.210;5.768;2023-08-01T15:04:56;20.10;73.40
53748;DHT22;39655;53.210;5.768;2023-08-01T15:07:24;20.10;73.80
53748;DHT22;39655;53.210;5.768;2023-08-01T15:09:51;20.50;73.50
53748;DHT22;39655;53.210;5.768;2023-08-01T15:12:20;21.30;70.30
53748;DHT22;39655;53.210;5.768;2023-08-01T15:14:55;21.30;70.50
53748;DHT22;39655;53.210;5.768;2023-08-01T15:17:21;21.50;66.20
53748;DHT22;39655;53.210;5.768;2023-08-01T15:19:47;21.20;67.30
53748;DHT22;39655;53.210;5.768;2023-08-01T15:22:14;21.20;67.60
53748;DHT22;39655;53.210;5.768;2023-08-01T15:24:40;21.40;67.40
53748;DHT22;39655;53.210;5.768;2023-08-01T15:27:06;21.50;66.30
53748;DHT22;39655;53.210;5.768;2023-08-01T15:29:31;21.20;67.20
53748;DHT22;39655;53.210;5.768;2023-08-01T15:31:57;21.20;67.50
53748;DHT22;39655;53.210;5.768;2023-08-01T15:34:23;21.10;68.60
53748;DHT22;39655;53.210;5.768;2023-08-01T15:36:48;21.20;68.50
53748;DHT22;39655;53.210;5.768;2023-08-01T15:39:15;21.30;67.70
53748;DHT22;39655;53.210;5.768;2023-08-01T15:41:40;21.00;69.40
53748;DHT22;39655;53.210;5.768;2023-08-01T15:44:06;20.90;70.00
53748;DHT22;39655;53.210;5.768;2023-08-01T15:46:35;21.70;68.70
53748;DHT22;39655;53.210;5.768;2023-08-01T15:49:01;22.00;64.20
53748;DHT22;39655;53.210;5.768;2023-08-01T15:51:29;21.80;64.90
53748;DHT22;39655;53.210;5.768;2023-08-01T15:53:54;22.00;62.90
53748;DHT22;39655;53.210;5.768;2023-08-01T15:56:20;21.70;63.20
53748;DHT22;39655;53.210;5.768;2023-08-01T15:58:45;21.60;65.50
53748;DHT22;39655;53.210;5.768;2023-08-01T16:01:11;21.80;65.60
53748;DHT22;39655;53.210;5.768;2023-08-01T16:03:38;22.60;63.60
53748;DHT22;39655;53.210;5.768;2023-08-01T16:06:07;22.80;62.30
53748;DHT22;39655;53.210;5.768;2023-08-01T16:08:34;22.70;63.30
53748;DHT22;39655;53.210;5.768;2023-08-01T16:11:00;22.50;62.50
53748;DHT22;39655;53.210;5.768;2023-08-01T16:13:26;22.90;61.40
53748;DHT22;39655;53.210;5.768;2023-08-01T16:15:51;22.90;62.70
53748;DHT22;39655;53.210;5.768;2023-08-01T16:18:18;22.70;60.90
53748;DHT22;39655;53.210;5.768;2023-08-01T16:20:44;21.80;63.50
53748;DHT22;39655;53.210;5.768;2023-08-01T16:23:10;21.10;66.50
53748;DHT22;39655;53.210;5.768;2023-08-01T16:25:40;20.70;67.20
53748;DHT22;39655;53.210;5.768;2023-08-01T16:28:05;20.40;69.50
53748;DHT22;39655;53.210;5.768;2023-08-01T16:30:31;20.10;70.50
53748;DHT22;39655;53.210;5.768;2023-08-01T16:32:57;20.10;71.30
53748;DHT22;39655;53.210;5.768;2023-08-01T16:35:24;19.90;71.40
53748;DHT22;39655;53.210;5.768;2023-08-01T16:37:50;20.10;70.90
53748;DHT22;39655;53.210;5.768;2023-08-01T16:40:16;21.00;69.50
53748;DHT22;39655;53.210;5.768;2023-08-01T16:42:42;21.70;67.20
53748;DHT22;39655;53.210;5.768;2023-08-01T16:45:09;21.60;66.10
53748;DHT22;39655;53.210;5.768;2023-08-01T16:47:36;20.90;68.50
53748;DHT22;39655;53.210;5.768;2023-08-01T16:50:01;20.30;71.10
53748;DHT22;39655;53.210;5.768;2023-08-01T16:52:27;20.40;71.80
53748;DHT22;39655;53.210;5.768;2023-08-01T16:54:53;20.20;72.60
53748;DHT22;39655;53.210;5.768;2023-08-01T16:57:19;20.00;73.10
53748;DHT22;39655;53.210;5.768;2023-08-01T16:59:45;19.90;73.60
53748;DHT22;39655;53.210;5.768;2023-08-01T17:02:11;19.90;73.40
53748;DHT22;39655;53.210;5.768;2023-08-01T17:04:40;19.90;73.30
53748;DHT22;39655;53.210;5.768;2023-08-01T17:07:06;20.10;72.60
53748;DHT22;39655;53.210;5.768;2023-08-01T17:09:32;20.30;72.10
53748;DHT22;39655;53.210;5.768;2023-08-01T17:11:58;20.10;73.10
53748;DHT22;39655;53.210;5.768;2023-08-01T17:14:24;20.30;72.90
53748;DHT22;39655;53.210;5.768;2023-08-01T17:16:50;21.10;69.80
53748;DHT22;39655;53.210;5.768;2023-08-01T17:19:16;21.10;68.40
53748;DHT22;39655;53.210;5.768;2023-08-01T17:21:42;20.70;69.00
53748;DHT22;39655;53.210;5.768;2023-08-01T17:24:09;20.10;71.00
53748;DHT22;39655;53.210;5.768;2023-08-01T17:26:36;19.80;72.60
53748;DHT22;39655;53.210;5.768;2023-08-01T17:29:02;19.50;74.20
53748;DHT22;39655;53.210;5.768;2023-08-01T17:31:27;19.10;75.40
53748;DHT22;39655;53.210;5.768;2023-08-01T17:33:57;19.00;76.60
53748;DHT22;39655;53.210;5.768;2023-08-01T17:36:23;18.80;78.00
53748;DHT22;39655;53.210;5.768;2023-08-01T17:38:49;18.70;78.80
53748;DHT22;39655;53.210;5.768;2023-08-01T17:41:23;18.40;79.50
53748;DHT22;39655;53.210;5.768;2023-08-01T17:43:53;18.20;80.00
53748;DHT22;39655;53.210;5.768;2023-08-01T17:46:19;18.10;80.40
53748;DHT22;39655;53.210;5.768;2023-08-01T17:48:45;18.20;80.70
53748;DHT22;39655;53.210;5.768;2023-08-01T17:51:11;18.30;81.30
53748;DHT22;39655;53.210;5.768;2023-08-01T17:53:37;18.60;80.70
53748;DHT22;39655;53.210;5.768;2023-08-01T17:56:15;19.50;78.40
53748;DHT22;39655;53.210;5.768;2023-08-01T18:01:54;20.40;73.50
53748;DHT22;39655;53.210;5.768;2023-08-01T18:07:10;19.40;76.90
53748;DHT22;39655;53.210;5.768;2023-08-01T18:15:49;18.60;81.20
53748;DHT22;39655;53.210;5.768;2023-08-01T18:18:15;18.30;82.40
53748;DHT22;39655;53.210;5.768;2023-08-01T18:21:10;18.30;81.70
53748;DHT22;39655;53.210;5.768;2023-08-01T18:23:45;18.20;82.30
53748;DHT22;39655;53.210;5.768;2023-08-01T18:29:14;18.20;82.10
53748;DHT22;39655;53.210;5.768;2023-08-01T18:31:42;18.20;82.30
53748;DHT22;39655;53.210;5.768;2023-08-01T18:34:24;18.10;82.20
53748;DHT22;39655;53.210;5.768;2023-08-01T18:42:29;17.80;83.20
53748;DHT22;39655;53.210;5.768;2023-08-01T18:45:15;17.60;83.50
53748;DHT22;39655;53.210;5.768;2023-08-01T18:47:58;17.60;84.10
53748;DHT22;39655;53.210;5.768;2023-08-01T18:50:52;17.60;84.50
53748;DHT22;39655;53.210;5.768;2023-08-01T18:53:45;17.60;84.70
53748;DHT22;39655;53.210;5.768;2023-08-01T18:56:25;17.60;84.90
53748;DHT22;39655;53.210;5.768;2023-08-01T18:59:14;17.60;84.50
53748;DHT22;39655;53.210;5.768;2023-08-01T19:04:46;17.50;84.80
53748;DHT22;39655;53.210;5.768;2023-08-01T19:07:16;17.60;84.20
53748;DHT22;39655;53.210;5.768;2023-08-01T19:09:57;17.50;84.40
53748;DHT22;39655;53.210;5.768;2023-08-01T19:15:30;17.30;85.20
53748;DHT22;39655;53.210;5.768;2023-08-01T19:17:57;17.40;85.70
53748;DHT22;39655;53.210;5.768;2023-08-01T19:20:23;17.30;86.00
53748;DHT22;39655;53.210;5.768;2023-08-01T19:22:49;17.30;86.40
53748;DHT22;39655;53.210;5.768;2023-08-01T19:25:15;17.30;86.50
53748;DHT22;39655;53.210;5.768;2023-08-01T19:27:40;17.40;86.50
53748;DHT22;39655;53.210;5.768;2023-08-01T19:30:06;17.30;87.10
53748;DHT22;39655;53.210;5.768;2023-08-01T19:32:33;17.20;87.10
53748;DHT22;39655;53.210;5.768;2023-08-01T19:34:58;17.20;87.70
53748;DHT22;39655;53.210;5.768;2023-08-01T19:37:24;17.10;88.30
53748;DHT22;39655;53.210;5.768;2023-08-01T19:39:50;17.10;88.90
53748;DHT22;39655;53.210;5.768;2023-08-01T19:42:18;17.10;88.60
53748;DHT22;39655;53.210;5.768;2023-08-01T19:44:44;17.10;88.80
53748;DHT22;39655;53.210;5.768;2023-08-01T19:47:10;17.10;88.80
53748;DHT22;39655;53.210;5.768;2023-08-01T19:49:37;17.10;88.90
53748;DHT22;39655;53.210;5.768;2023-08-01T19:52:03;17.10;89.20
53748;DHT22;39655;53.210;5.768;2023-08-01T19:54:31;17.10;89.00
53748;DHT22;39655;53.210;5.768;2023-08-01T19:56:57;17.10;89.20
53748;DHT22;39655;53.210;5.768;2023-08-01T19:59:23;17.10;89.10
53748;DHT22;39655;53.210;5.768;2023-08-01T20:01:48;17.20;89.20
53748;DHT22;39655;53.210;5.768;2023-08-01T20:04:21;17.10;89.20
53748;DHT22;39655;53.210;5.768;2023-08-01T20:06:47;17.10;89.60
53748;DHT22;39655;53.210;5.768;2023-08-01T21:26:00;16.20;92.40
53748;DHT22;39655;53.210;5.768;2023-08-01T21:28:27;16.30;93.50
53748;DHT22;39655;53.210;5.768;2023-08-01T21:30:52;16.20;93.50
53748;DHT22;39655;53.210;5.768;2023-08-01T21:33:18;16.20;93.60
53748;DHT22;39655;53.210;5.768;2023-08-01T21:35:44;16.20;94.10
53748;DHT22;39655;53.210;5.768;2023-08-01T21:38:10;16.10;94.00
53748;DHT22;39655;53.210;5.768;2023-08-01T21:40:38;16.10;94.30
53748;DHT22;39655;53.210;5.768;2023-08-01T21:43:04;16.10;94.50
53748;DHT22;39655;53.210;5.768;2023-08-01T21:45:36;16.20;94.90
53748;DHT22;39655;53.210;5.768;2023-08-01T21:48:29;16.10;94.70
53748;DHT22;39655;53.210;5.768;2023-08-01T21:51:08;16.10;94.90
53748;DHT22;39655;53.210;5.768;2023-08-01T21:53:34;16.10;95.10
53748;DHT22;39655;53.210;5.768;2023-08-01T21:56:09;16.10;94.90
53748;DHT22;39655;53.210;5.768;2023-08-01T21:58:34;16.10;95.10
53748;DHT22;39655;53.210;5.768;2023-08-01T22:01:23;16.10;95.20
